Wetterdaten: Woche 25.08.14 - 31.08.14 (KW35)
Datum Zeit Temp. A. Feuchte A. Luftdruck Regen Wind Richtung Sonnenschein ET UV Solar Taupunkt Windchill Windben
25.08.2014 00:00 8,6 C 91 % 1019,5 hPa 0,0 l/m 0,3 km/h (0 Bft) O-SO 0,00 h 0,000 mm 0,0 UV-I 0 W/m 7,3 C 8,6 C 1,2 km/h (1 Bft)
25.08.2014 01:00 7,5 C 93 % 1019,3 hPa 0,0 l/m 0,2 km/h (0 Bft) O 0,00 h 0,000 mm 0,0 UV-I 0 W/m 6,4 C 7,5 C 0,9 km/h (0 Bft)
25.08.2014 02:00 6,2 C 95 % 1019,1 hPa 0,0 l/m 0,1 km/h (0 Bft) O 0,00 h 0,000 mm 0,0 UV-I 0 W/m 5,4 C 6,2 C 0,4 km/h (0 Bft)
25.08.2014 03:00 5,6 C 95 % 1019,0 hPa 0,0 l/m 0,0 km/h (0 Bft) O 0,00 h 0,000 mm 0,0 UV-I 0 W/m 4,9 C 5,6 C 0,3 km/h (0 Bft)
25.08.2014 04:00 4,8 C 96 % 1018,7 hPa 0,0 l/m 0,3 km/h (0 Bft) N-NO 0,00 h 0,000 mm 0,0 UV-I 0 W/m 4,1 C 4,8 C 1,1 km/h (0 Bft)
25.08.2014 05:00 4,5 C 95 % 1018,7 hPa 0,0 l/m 0,0 km/h (0 Bft) N 0,00 h 0,000 mm 0,0 UV-I 0 W/m 3,8 C 4,5 C 0,4 km/h (0 Bft)
25.08.2014 06:00 4,0 C 96 % 1018,7 hPa 0,0 l/m 0,0 km/h (0 Bft) N 0,00 h 0,000 mm 0,0 UV-I 18 W/m 3,4 C 4,0 C 0,2 km/h (0 Bft)
25.08.2014 07:00 5,0 C 96 % 1018,7 hPa 0,0 l/m 0,1 km/h (0 Bft) O 0,17 h 0,000 mm 0,0 UV-I 41 W/m 4,4 C 5,0 C 0,4 km/h (0 Bft)
25.08.2014 08:00 7,0 C 93 % 1018,8 hPa 0,0 l/m 0,0 km/h (0 Bft) N 0,88 h 0,025 mm 0,8 UV-I 149 W/m 6,0 C 7,0 C 0,1 km/h (0 Bft)
25.08.2014 09:00 10,5 C 85 % 1018,8 hPa 0,0 l/m 1,1 km/h (0 Bft) SO 1,00 h 0,051 mm 1,5 UV-I 308 W/m 8,1 C 10,5 C 2,3 km/h (1 Bft)
25.08.2014 10:00 12,1 C 76 % 1018,8 hPa 0,0 l/m 5,0 km/h (1 Bft) S 1,00 h 0,152 mm 1,8 UV-I 259 W/m 8,1 C 12,0 C 8,1 km/h (2 Bft)
25.08.2014 11:00 14,0 C 69 % 1018,6 hPa 0,0 l/m 6,4 km/h (2 Bft) SW 1,00 h 0,152 mm 3,3 UV-I 465 W/m 8,3 C 13,6 C 10,2 km/h (2 Bft)
25.08.2014 12:00 16,1 C 60 % 1018,0 hPa 0,0 l/m 8,4 km/h (2 Bft) S 1,00 h 0,254 mm 4,6 UV-I 633 W/m 8,3 C 15,0 C 13,4 km/h (3 Bft)
25.08.2014 13:00 16,4 C 56 % 1017,2 hPa 0,0 l/m 7,6 km/h (2 Bft) S-SW 1,00 h 0,381 mm 3,9 UV-I 493 W/m 7,7 C 15,5 C 12,0 km/h (2 Bft)
25.08.2014 14:00 16,8 C 55 % 1016,3 hPa 0,0 l/m 6,5 km/h (2 Bft) S-SO 1,00 h 0,305 mm 3,2 UV-I 424 W/m 7,6 C 16,1 C 10,8 km/h (2 Bft)
25.08.2014 15:00 17,1 C 53 % 1015,7 hPa 0,0 l/m 9,1 km/h (2 Bft) S 1,00 h 0,279 mm 2,5 UV-I 375 W/m 7,5 C 15,8 C 13,8 km/h (3 Bft)
25.08.2014 16:00 17,3 C 48 % 1015,4 hPa 0,2 l/m 7,5 km/h (2 Bft) W-SW 1,00 h 0,254 mm 1,8 UV-I 308 W/m 6,3 C 16,5 C 11,7 km/h (2 Bft)
25.08.2014 17:00 16,6 C 51 % 1014,9 hPa 0,0 l/m 5,5 km/h (1 Bft) W-SW 1,00 h 0,229 mm 0,7 UV-I 93 W/m 6,3 C 16,4 C 9,0 km/h (2 Bft)
25.08.2014 18:00 16,0 C 54 % 1014,3 hPa 0,0 l/m 2,6 km/h (1 Bft) W-SW 1,00 h 0,102 mm 0,5 UV-I 60 W/m 6,8 C 16,0 C 4,8 km/h (1 Bft)
25.08.2014 19:00 15,0 C 61 % 1013,7 hPa 0,0 l/m 1,2 km/h (1 Bft) S 0,02 h 0,051 mm 0,0 UV-I 19 W/m 7,6 C 15,0 C 2,8 km/h (1 Bft)
25.08.2014 20:00 13,8 C 73 % 1013,5 hPa 0,0 l/m 0,5 km/h (0 Bft) S-SO 0,00 h 0,025 mm 0,0 UV-I 0 W/m 9,0 C 13,8 C 1,6 km/h (1 Bft)
25.08.2014 21:00 13,2 C 78 % 1013,4 hPa 0,0 l/m 0,7 km/h (0 Bft) SO 0,00 h 0,000 mm 0,0 UV-I 0 W/m 9,5 C 13,2 C 2,2 km/h (1 Bft)
25.08.2014 22:00 12,8 C 77 % 1012,9 hPa 0,0 l/m 3,9 km/h (1 Bft) S-SO 0,00 h 0,025 mm 0,0 UV-I 0 W/m 9,0 C 12,8 C 6,2 km/h (2 Bft)
25.08.2014 23:00 12,7 C 77 % 1012,4 hPa 0,0 l/m 2,7 km/h (1 Bft) S 0,00 h 0,025 mm 0,0 UV-I 0 W/m 8,7 C 12,7 C 5,0 km/h (1 Bft)
26.08.2014 00:00 12,1 C 82 % 1011,6 hPa 0,0 l/m 1,0 km/h (0 Bft) O 0,00 h 0,025 mm 0,0 UV-I 0 W/m 9,1 C 12,1 C 2,1 km/h (1 Bft)
26.08.2014 01:00 11,4 C 87 % 1010,6 hPa 0,0 l/m 1,7 km/h (1 Bft) O 0,00 h 0,025 mm 0,0 UV-I 0 W/m 9,4 C 11,4 C 3,3 km/h (1 Bft)
26.08.2014 02:00 10,9 C 91 % 1009,8 hPa 0,2 l/m 0,6 km/h (0 Bft) O 0,00 h 0,000 mm 0,0 UV-I 0 W/m 9,5 C 10,9 C 1,7 km/h (1 Bft)
26.08.2014 03:00 10,7 C 93 % 1008,7 hPa 0,2 l/m 0,6 km/h (0 Bft) O 0,00 h 0,000 mm 0,0 UV-I 0 W/m 9,6 C 10,7 C 2,1 km/h (1 Bft)
26.08.2014 04:00 10,6 C 94 % 1007,6 hPa 0,8 l/m 2,5 km/h (1 Bft) SO 0,00 h 0,000 mm 0,0 UV-I 0 W/m 9,7 C 10,6 C 4,5 km/h (1 Bft)
26.08.2014 05:00 10,6 C 95 % 1006,8 hPa 0,8 l/m 3,4 km/h (1 Bft) SO 0,00 h 0,000 mm 0,0 UV-I 0 W/m 9,9 C 10,6 C 5,6 km/h (1 Bft)
26.08.2014 06:00 10,7 C 95 % 1006,0 hPa 0,4 l/m 3,1 km/h (1 Bft) SO 0,00 h 0,000 mm 0,0 UV-I 5 W/m 10,0 C 10,7 C 5,2 km/h (1 Bft)
26.08.2014 07:00 10,9 C 95 % 1005,2 hPa 0,8 l/m 3,4 km/h (1 Bft) SO 0,00 h 0,000 mm 0,0 UV-I 11 W/m 10,1 C 10,9 C 5,8 km/h (2 Bft)
26.08.2014 08:00 11,4 C 96 % 1004,7 hPa 0,8 l/m 6,5 km/h (2 Bft) S 0,40 h 0,000 mm 0,6 UV-I 48 W/m 10,8 C 10,9 C 10,1 km/h (2 Bft)
26.08.2014 09:00 11,8 C 96 % 1004,4 hPa 0,0 l/m 5,7 km/h (1 Bft) S 0,62 h 0,025 mm 0,6 UV-I 62 W/m 11,2 C 11,5 C 9,1 km/h (2 Bft)
26.08.2014 10:00 12,4 C 95 % 1004,5 hPa 0,2 l/m 5,5 km/h (1 Bft) S-SW 1,00 h 0,025 mm 0,8 UV-I 98 W/m 11,7 C 12,2 C 9,1 km/h (2 Bft)
26.08.2014 11:00 13,1 C 95 % 1004,9 hPa 0,4 l/m 5,0 km/h (1 Bft) W-SW 1,00 h 0,051 mm 1,0 UV-I 124 W/m 12,3 C 13,0 C 8,3 km/h (2 Bft)
26.08.2014 12:00 13,7 C 95 % 1005,1 hPa 0,0 l/m 5,9 km/h (2 Bft) W-NW 1,00 h 0,076 mm 1,0 UV-I 115 W/m 12,9 C 13,4 C 9,4 km/h (2 Bft)
26.08.2014 13:00 14,4 C 92 % 1005,3 hPa 0,0 l/m 9,0 km/h (2 Bft) W-NW 1,00 h 0,051 mm 1,7 UV-I 202 W/m 13,1 C 13,0 C 13,8 km/h (3 Bft)
26.08.2014 14:00 15,2 C 88 % 1005,7 hPa 0,0 l/m 8,3 km/h (2 Bft) W-NW 1,00 h 0,127 mm 1,6 UV-I 210 W/m 13,1 C 14,0 C 12,8 km/h (3 Bft)
26.08.2014 15:00 15,5 C 84 % 1006,1 hPa 0,0 l/m 8,8 km/h (2 Bft) W-NW 1,00 h 0,127 mm 1,3 UV-I 157 W/m 12,9 C 14,3 C 13,2 km/h (3 Bft)
26.08.2014 16:00 15,1 C 86 % 1006,6 hPa 0,0 l/m 6,0 km/h (2 Bft) NW 1,00 h 0,102 mm 0,7 UV-I 95 W/m 12,8 C 14,8 C 9,4 km/h (2 Bft)
26.08.2014 17:00 15,2 C 85 % 1006,6 hPa 0,0 l/m 7,1 km/h (2 Bft) W-NW 1,00 h 0,051 mm 0,8 UV-I 123 W/m 12,6 C 14,6 C 10,8 km/h (2 Bft)
26.08.2014 18:00 14,8 C 86 % 1006,4 hPa 0,0 l/m 4,7 km/h (1 Bft) N 0,73 h 0,076 mm 0,5 UV-I 75 W/m 12,5 C 14,7 C 7,3 km/h (2 Bft)
26.08.2014 19:00 14,0 C 89 % 1006,7 hPa 0,0 l/m 3,8 km/h (1 Bft) N-NO 0,00 h 0,051 mm 0,0 UV-I 14 W/m 12,3 C 13,8 C 6,0 km/h (2 Bft)
26.08.2014 20:00 13,0 C 92 % 1007,0 hPa 0,0 l/m 1,8 km/h (1 Bft) N-NO 0,00 h 0,000 mm 0,0 UV-I 0 W/m 11,7 C 13,0 C 3,9 km/h (1 Bft)
26.08.2014 21:00 12,7 C 94 % 1007,1 hPa 0,2 l/m 1,1 km/h (1 Bft) N-NO 0,00 h 0,000 mm 0,0 UV-I 0 W/m 11,7 C 12,7 C 2,5 km/h (1 Bft)
26.08.2014 22:00 12,5 C 95 % 1007,3 hPa 1,0 l/m 0,3 km/h (0 Bft) N 0,00 h 0,000 mm 0,0 UV-I 0 W/m 11,7 C 12,5 C 1,1 km/h (0 Bft)
26.08.2014 23:00 12,3 C 96 % 1007,3 hPa 0,6 l/m 2,2 km/h (1 Bft) N 0,00 h 0,000 mm 0,0 UV-I 0 W/m 11,7 C 12,3 C 4,0 km/h (1 Bft)
27.08.2014 00:00 12,2 C 96 % 1007,3 hPa 0,4 l/m 0,9 km/h (0 Bft) NO 0,00 h 0,000 mm 0,0 UV-I 0 W/m 11,6 C 12,2 C 2,3 km/h (1 Bft)
27.08.2014 01:00 12,1 C 97 % 1007,6 hPa 3,0 l/m 4,8 km/h (1 Bft) N-NW 0,00 h 0,000 mm 0,0 UV-I 0 W/m 11,6 C 11,9 C 7,2 km/h (2 Bft)
27.08.2014 02:00 11,9 C 97 % 1007,3 hPa 1,6 l/m 2,9 km/h (1 Bft) N-NO 0,00 h 0,000 mm 0,0 UV-I 0 W/m 11,5 C 11,9 C 5,0 km/h (1 Bft)
27.08.2014 03:00 11,5 C 97 % 1007,7 hPa 3,6 l/m 7,7 km/h (2 Bft) N 0,00 h 0,000 mm 0,0 UV-I 0 W/m 11,0 C 10,5 C 12,6 km/h (3 Bft)
27.08.2014 04:00 11,1 C 96 % 1008,2 hPa 1,2 l/m 6,0 km/h (2 Bft) N-NO 0,00 h 0,000 mm 0,0 UV-I 0 W/m 10,5 C 10,8 C 9,4 km/h (2 Bft)
27.08.2014 05:00 10,9 C 96 % 1008,5 hPa 0,2 l/m 1,6 km/h (1 Bft) N-NO 0,00 h 0,000 mm 0,0 UV-I 0 W/m 10,3 C 10,8 C 3,6 km/h (1 Bft)
27.08.2014 06:00 10,8 C 96 % 1009,6 hPa 0,0 l/m 1,1 km/h (1 Bft) N 0,00 h 0,000 mm 0,0 UV-I 8 W/m 10,2 C 10,8 C 2,5 km/h (1 Bft)
27.08.2014 07:00 10,9 C 97 % 1010,9 hPa 0,0 l/m 4,2 km/h (1 Bft) N-NW 0,00 h 0,000 mm 0,0 UV-I 24 W/m 10,4 C 10,9 C 7,1 km/h (2 Bft)
27.08.2014 08:00 11,4 C 96 % 1011,9 hPa 0,0 l/m 5,3 km/h (1 Bft) N 0,95 h 0,025 mm 0,6 UV-I 85 W/m 10,9 C 11,2 C 8,2 km/h (2 Bft)
27.08.2014 09:00 12,3 C 93 % 1013,0 hPa 0,0 l/m 6,8 km/h (2 Bft) N-NW 1,00 h 0,051 mm 1,1 UV-I 177 W/m 11,2 C 11,7 C 10,3 km/h (2 Bft)
27.08.2014 10:00 13,8 C 86 % 1013,9 hPa 0,0 l/m 8,6 km/h (2 Bft) N-NO 1,00 h 0,102 mm 2,5 UV-I 387 W/m 11,4 C 12,5 C 13,2 km/h (3 Bft)
27.08.2014 11:00 15,7 C 74 % 1014,6 hPa 0,0 l/m 8,4 km/h (2 Bft) NO 1,00 h 0,254 mm 4,4 UV-I 756 W/m 11,1 C 14,6 C 12,4 km/h (3 Bft)
27.08.2014 12:00 16,8 C 66 % 1015,0 hPa 0,0 l/m 6,7 km/h (2 Bft) N-NO 1,00 h 0,406 mm 4,0 UV-I 615 W/m 10,3 C 16,2 C 10,6 km/h (2 Bft)
27.08.2014 13:00 17,1 C 61 % 1015,2 hPa 0,0 l/m 6,1 km/h (2 Bft) N 1,00 h 0,356 mm 3,8 UV-I 464 W/m 9,5 C 16,7 C 10,1 km/h (2 Bft)
27.08.2014 14:00 19,1 C 53 % 1015,2 hPa 0,0 l/m 9,5 km/h (2 Bft) N-NW 1,00 h 0,305 mm 4,5 UV-I 773 W/m 9,3 C 17,9 C 14,9 km/h (3 Bft)
27.08.2014 15:00 18,3 C 53 % 1015,6 hPa 0,0 l/m 7,4 km/h (2 Bft) N-NW 1,00 h 0,483 mm 3,0 UV-I 399 W/m 8,5 C 17,6 C 12,1 km/h (2 Bft)
27.08.2014 16:00 18,2 C 51 % 1015,9 hPa 0,0 l/m 6,8 km/h (2 Bft) N-NW 1,00 h 0,305 mm 2,0 UV-I 339 W/m 7,9 C 17,5 C 11,0 km/h (2 Bft)
27.08.2014 17:00 17,2 C 53 % 1016,1 hPa 0,0 l/m 5,9 km/h (2 Bft) N 1,00 h 0,254 mm 1,0 UV-I 191 W/m 7,6 C 16,8 C 9,4 km/h (2 Bft)
27.08.2014 18:00 16,8 C 52 % 1016,5 hPa 0,0 l/m 4,3 km/h (1 Bft) N-NW 0,63 h 0,152 mm 0,6 UV-I 79 W/m 7,0 C 16,7 C 7,1 km/h (2 Bft)
27.08.2014 19:00 15,7 C 56 % 1016,8 hPa 0,0 l/m 1,2 km/h (1 Bft) N-NW 0,00 h 0,076 mm 0,0 UV-I 16 W/m 7,0 C 15,7 C 2,5 km/h (1 Bft)
27.08.2014 20:00 12,3 C 79 % 1017,3 hPa 0,0 l/m 0,1 km/h (0 Bft) O-SO 0,00 h 0,025 mm 0,0 UV-I 0 W/m 8,8 C 12,3 C 0,6 km/h (0 Bft)
27.08.2014 21:00 10,4 C 88 % 1017,9 hPa 0,0 l/m 0,5 km/h (0 Bft) O 0,00 h 0,000 mm 0,0 UV-I 0 W/m 8,5 C 10,4 C 1,6 km/h (1 Bft)
27.08.2014 22:00 9,1 C 92 % 1018,1 hPa 0,0 l/m 0,1 km/h (0 Bft) O-NO 0,00 h 0,000 mm 0,0 UV-I 0 W/m 7,9 C 9,1 C 0,8 km/h (0 Bft)
27.08.2014 23:00 8,1 C 93 % 1018,2 hPa 0,0 l/m 0,0 km/h (0 Bft) SO 0,00 h 0,000 mm 0,0 UV-I 0 W/m 7,1 C 8,1 C 0,2 km/h (0 Bft)
28.08.2014 00:00 7,2 C 94 % 1018,4 hPa 0,0 l/m 0,0 km/h (0 Bft) N 0,00 h 0,000 mm 0,0 UV-I 0 W/m 6,2 C 7,2 C 0,1 km/h (0 Bft)
28.08.2014 01:00 6,6 C 94 % 1018,8 hPa 0,0 l/m 0,0 km/h (0 Bft) N 0,00 h 0,000 mm 0,0 UV-I 0 W/m 5,7 C 6,6 C 0,1 km/h (0 Bft)
28.08.2014 02:00 6,2 C 94 % 1018,7 hPa 0,0 l/m 0,0 km/h (0 Bft) N 0,00 h 0,000 mm 0,0 UV-I 0 W/m 5,2 C 6,2 C 0,0 km/h (0 Bft)
28.08.2014 03:00 5,6 C 93 % 1018,7 hPa 0,0 l/m 0,0 km/h (0 Bft) N 0,00 h 0,000 mm 0,0 UV-I 0 W/m 4,6 C 5,6 C 0,0 km/h (0 Bft)
28.08.2014 04:00 5,0 C 94 % 1018,8 hPa 0,0 l/m 0,0 km/h (0 Bft) N 0,00 h 0,000 mm 0,0 UV-I 0 W/m 4,1 C 5,0 C 0,0 km/h (0 Bft)
28.08.2014 05:00 4,5 C 94 % 1019,0 hPa 0,0 l/m 0,0 km/h (0 Bft) N 0,00 h 0,000 mm 0,0 UV-I 0 W/m 3,6 C 4,5 C 0,0 km/h (0 Bft)
28.08.2014 06:00 4,1 C 94 % 1019,2 hPa 0,0 l/m 0,0 km/h (0 Bft) N 0,00 h 0,000 mm 0,0 UV-I 10 W/m 3,2 C 4,1 C 0,0 km/h (0 Bft)
28.08.2014 07:00 4,4 C 95 % 1019,5 hPa 0,0 l/m 0,0 km/h (0 Bft) N 0,12 h 0,000 mm 0,5 UV-I 34 W/m 3,8 C 4,4 C 0,0 km/h (0 Bft)
28.08.2014 08:00 7,6 C 92 % 1019,7 hPa 0,0 l/m 0,1 km/h (0 Bft) S 0,75 h 0,025 mm 1,0 UV-I 209 W/m 6,4 C 7,6 C 0,6 km/h (0 Bft)
28.08.2014 09:00 12,4 C 81 % 1019,9 hPa 0,0 l/m 0,6 km/h (0 Bft) W-NW 1,00 h 0,102 mm 1,9 UV-I 470 W/m 9,2 C 12,4 C 1,7 km/h (1 Bft)
28.08.2014 10:00 15,7 C 73 % 1019,8 hPa 0,0 l/m 1,1 km/h (1 Bft) N 1,00 h 0,229 mm 3,3 UV-I 618 W/m 10,9 C 15,7 C 3,2 km/h (1 Bft)
28.08.2014 11:00 18,2 C 61 % 1019,4 hPa 0,0 l/m 4,0 km/h (1 Bft) S 1,00 h 0,330 mm 4,2 UV-I 695 W/m 10,5 C 18,2 C 7,2 km/h (2 Bft)
28.08.2014 12:00 19,5 C 53 % 1019,2 hPa 0,0 l/m 5,5 km/h (1 Bft) SW 1,00 h 0,406 mm 5,2 UV-I 803 W/m 9,5 C 19,2 C 9,0 km/h (2 Bft)
28.08.2014 13:00 20,0 C 49 % 1018,9 hPa 0,0 l/m 6,6 km/h (2 Bft) S 1,00 h 0,457 mm 5,3 UV-I 775 W/m 8,9 C 19,4 C 10,7 km/h (2 Bft)
28.08.2014 14:00 20,4 C 48 % 1018,6 hPa 0,0 l/m 6,7 km/h (2 Bft) S 1,00 h 0,483 mm 4,6 UV-I 678 W/m 8,9 C 20,0 C 10,5 km/h (2 Bft)
28.08.2014 15:00 20,5 C 49 % 1018,2 hPa 0,0 l/m 5,9 km/h (2 Bft) S 1,00 h 0,457 mm 3,3 UV-I 507 W/m 9,4 C 20,1 C 9,5 km/h (2 Bft)
28.08.2014 16:00 20,9 C 48 % 1017,8 hPa 0,0 l/m 5,3 km/h (1 Bft) S 1,00 h 0,356 mm 2,4 UV-I 468 W/m 9,4 C 20,8 C 9,1 km/h (2 Bft)
28.08.2014 17:00 20,4 C 50 % 1017,5 hPa 0,0 l/m 5,0 km/h (1 Bft) S 1,00 h 0,330 mm 1,3 UV-I 324 W/m 9,5 C 20,3 C 8,1 km/h (2 Bft)
28.08.2014 18:00 19,6 C 52 % 1017,5 hPa 0,0 l/m 6,3 km/h (2 Bft) S 0,38 h 0,229 mm 0,7 UV-I 99 W/m 9,3 C 19,2 C 9,4 km/h (2 Bft)
28.08.2014 19:00 18,3 C 57 % 1017,4 hPa 0,0 l/m 3,2 km/h (1 Bft) S 0,00 h 0,102 mm 0,0 UV-I 16 W/m 9,7 C 18,3 C 5,1 km/h (1 Bft)
28.08.2014 20:00 15,8 C 70 % 1017,6 hPa 0,0 l/m 1,2 km/h (1 Bft) O 0,00 h 0,025 mm 0,0 UV-I 0 W/m 10,2 C 15,8 C 2,8 km/h (1 Bft)
28.08.2014 21:00 13,8 C 79 % 1018,0 hPa 0,0 l/m 0,6 km/h (0 Bft) O 0,00 h 0,000 mm 0,0 UV-I 0 W/m 10,2 C 13,8 C 1,9 km/h (1 Bft)
28.08.2014 22:00 12,6 C 86 % 1018,1 hPa 0,0 l/m 0,2 km/h (0 Bft) O 0,00 h 0,025 mm 0,0 UV-I 0 W/m 10,2 C 12,6 C 0,7 km/h (0 Bft)
28.08.2014 23:00 11,6 C 90 % 1018,2 hPa 0,0 l/m 0,0 km/h (0 Bft) N 0,00 h 0,000 mm 0,0 UV-I 0 W/m 9,9 C 11,6 C 0,0 km/h (0 Bft)
29.08.2014 00:00 11,7 C 90 % 1017,9 hPa 0,0 l/m 0,0 km/h (0 Bft) N 0,00 h 0,000 mm 0,0 UV-I 0 W/m 10,2 C 11,7 C 0,0 km/h (0 Bft)
29.08.2014 01:00 12,1 C 89 % 1017,8 hPa 0,0 l/m 0,0 km/h (0 Bft) N 0,00 h 0,000 mm 0,0 UV-I 0 W/m 10,3 C 12,1 C 0,0 km/h (0 Bft)
29.08.2014 02:00 12,2 C 90 % 1017,6 hPa 0,0 l/m 0,0 km/h (0 Bft) N 0,00 h 0,000 mm 0,0 UV-I 0 W/m 10,5 C 12,2 C 0,0 km/h (0 Bft)
29.08.2014 03:00 12,9 C 90 % 1017,5 hPa 0,0 l/m 2,9 km/h (1 Bft) O 0,00 h 0,000 mm 0,0 UV-I 0 W/m 11,3 C 12,9 C 5,0 km/h (1 Bft)
29.08.2014 04:00 12,9 C 90 % 1016,9 hPa 0,0 l/m 0,7 km/h (0 Bft) O-NO 0,00 h 0,000 mm 0,0 UV-I 0 W/m 11,4 C 12,9 C 1,6 km/h (1 Bft)
29.08.2014 05:00 12,4 C 92 % 1016,7 hPa 0,0 l/m 0,2 km/h (0 Bft) N 0,00 h 0,000 mm 0,0 UV-I 0 W/m 11,1 C 12,4 C 0,6 km/h (0 Bft)
29.08.2014 06:00 11,4 C 94 % 1016,8 hPa 0,0 l/m 0,5 km/h (0 Bft) N 0,00 h 0,000 mm 0,0 UV-I 15 W/m 10,5 C 11,4 C 1,4 km/h (1 Bft)
29.08.2014 07:00 11,8 C 94 % 1016,7 hPa 0,0 l/m 0,1 km/h (0 Bft) NO 0,53 h 0,000 mm 0,5 UV-I 53 W/m 10,9 C 11,8 C 0,4 km/h (0 Bft)
29.08.2014 08:00 14,4 C 87 % 1016,5 hPa 0,0 l/m 0,2 km/h (0 Bft) S-SO 1,00 h 0,025 mm 0,8 UV-I 162 W/m 12,2 C 14,4 C 0,8 km/h (0 Bft)
29.08.2014 09:00 17,1 C 76 % 1016,4 hPa 0,0 l/m 5,7 km/h (1 Bft) S 1,00 h 0,076 mm 1,5 UV-I 255 W/m 12,9 C 16,7 C 8,8 km/h (2 Bft)
29.08.2014 10:00 18,3 C 75 % 1016,1 hPa 0,0 l/m 6,1 km/h (2 Bft) S 1,00 h 0,178 mm 2,2 UV-I 301 W/m 13,7 C 18,0 C 9,6 km/h (2 Bft)
29.08.2014 11:00 18,4 C 76 % 1016,0 hPa 0,0 l/m 6,1 km/h (2 Bft) S-SW 1,00 h 0,203 mm 2,1 UV-I 225 W/m 14,2 C 18,2 C 10,0 km/h (2 Bft)
29.08.2014 12:00 18,7 C 74 % 1016,0 hPa 0,0 l/m 7,4 km/h (2 Bft) S 1,00 h 0,152 mm 2,2 UV-I 223 W/m 14,1 C 18,2 C 11,3 km/h (2 Bft)
29.08.2014 13:00 18,5 C 77 % 1016,2 hPa 0,0 l/m 8,1 km/h (2 Bft) S 1,00 h 0,152 mm 2,3 UV-I 254 W/m 14,4 C 17,8 C 12,5 km/h (3 Bft)
29.08.2014 14:00 18,7 C 78 % 1016,2 hPa 0,0 l/m 9,6 km/h (2 Bft) S 1,00 h 0,178 mm 1,8 UV-I 199 W/m 14,7 C 17,4 C 14,5 km/h (3 Bft)
29.08.2014 15:00 19,1 C 79 % 1015,8 hPa 0,0 l/m 9,6 km/h (2 Bft) S 1,00 h 0,152 mm 2,1 UV-I 282 W/m 15,3 C 17,8 C 14,7 km/h (3 Bft)
29.08.2014 16:00 19,4 C 77 % 1015,6 hPa 0,0 l/m 8,4 km/h (2 Bft) S 1,00 h 0,178 mm 1,3 UV-I 226 W/m 15,3 C 18,5 C 13,2 km/h (3 Bft)
29.08.2014 17:00 19,9 C 75 % 1015,4 hPa 0,0 l/m 8,2 km/h (2 Bft) S 1,00 h 0,152 mm 1,1 UV-I 271 W/m 15,4 C 19,1 C 12,5 km/h (3 Bft)
29.08.2014 18:00 19,9 C 72 % 1015,3 hPa 0,0 l/m 4,6 km/h (1 Bft) W-NW 0,60 h 0,178 mm 0,6 UV-I 101 W/m 14,7 C 19,8 C 7,6 km/h (2 Bft)
29.08.2014 19:00 19,0 C 72 % 1015,4 hPa 0,0 l/m 2,2 km/h (1 Bft) W-SW 0,00 h 0,076 mm 0,0 UV-I 13 W/m 13,8 C 19,0 C 4,0 km/h (1 Bft)
29.08.2014 20:00 16,4 C 85 % 1015,8 hPa 0,0 l/m 0,6 km/h (0 Bft) SO 0,00 h 0,025 mm 0,0 UV-I 0 W/m 13,8 C 16,4 C 1,4 km/h (1 Bft)
29.08.2014 21:00 15,6 C 90 % 1016,2 hPa 0,0 l/m 0,7 km/h (0 Bft) SO 0,00 h 0,000 mm 0,0 UV-I 0 W/m 14,0 C 15,6 C 1,3 km/h (1 Bft)
29.08.2014 22:00 14,0 C 94 % 1016,6 hPa 0,0 l/m 0,1 km/h (0 Bft) O 0,00 h 0,000 mm 0,0 UV-I 0 W/m 13,1 C 14,0 C 0,4 km/h (0 Bft)
29.08.2014 23:00 13,3 C 95 % 1016,9 hPa 0,0 l/m 0,1 km/h (0 Bft) O 0,00 h 0,000 mm 0,0 UV-I 0 W/m 12,5 C 13,3 C 0,3 km/h (0 Bft)
30.08.2014 00:00 12,7 C 95 % 1017,0 hPa 0,0 l/m 0,0 km/h (0 Bft) N 0,00 h 0,000 mm 0,0 UV-I 0 W/m 11,9 C 12,7 C 0,0 km/h (0 Bft)
30.08.2014 01:00 12,2 C 95 % 1017,0 hPa 0,0 l/m 0,0 km/h (0 Bft) N 0,00 h 0,000 mm 0,0 UV-I 0 W/m 11,5 C 12,2 C 0,0 km/h (0 Bft)
30.08.2014 02:00 11,8 C 95 % 1017,0 hPa 0,0 l/m 0,0 km/h (0 Bft) N 0,00 h 0,000 mm 0,0 UV-I 0 W/m 11,0 C 11,8 C 0,1 km/h (0 Bft)
30.08.2014 03:00 11,4 C 95 % 1016,9 hPa 0,0 l/m 0,0 km/h (0 Bft) O 0,00 h 0,000 mm 0,0 UV-I 0 W/m 10,7 C 11,4 C 0,1 km/h (0 Bft)
30.08.2014 04:00 11,4 C 96 % 1016,9 hPa 0,0 l/m 0,1 km/h (0 Bft) O-NO 0,00 h 0,000 mm 0,0 UV-I 0 W/m 10,8 C 11,4 C 0,3 km/h (0 Bft)
30.08.2014 05:00 11,4 C 96 % 1017,0 hPa 0,0 l/m 0,1 km/h (0 Bft) NO 0,00 h 0,000 mm 0,0 UV-I 0 W/m 10,8 C 11,4 C 0,2 km/h (0 Bft)
30.08.2014 06:00 11,2 C 96 % 1017,2 hPa 0,0 l/m 0,0 km/h (0 Bft) N 0,00 h 0,000 mm 0,0 UV-I 13 W/m 10,5 C 11,2 C 0,1 km/h (0 Bft)
30.08.2014 07:00 11,3 C 96 % 1017,4 hPa 0,0 l/m 0,0 km/h (0 Bft) N-NO 0,40 h 0,000 mm 0,0 UV-I 54 W/m 10,7 C 11,3 C 0,1 km/h (0 Bft)
30.08.2014 08:00 13,9 C 96 % 1017,6 hPa 0,0 l/m 1,6 km/h (1 Bft) S-SO 1,00 h 0,025 mm 0,7 UV-I 151 W/m 13,3 C 13,9 C 2,9 km/h (1 Bft)
30.08.2014 09:00 15,8 C 91 % 1017,8 hPa 0,0 l/m 4,1 km/h (1 Bft) S 1,00 h 0,076 mm 1,5 UV-I 302 W/m 14,3 C 15,7 C 6,3 km/h (2 Bft)
30.08.2014 10:00 17,9 C 83 % 1017,9 hPa 0,0 l/m 4,5 km/h (1 Bft) SW 1,00 h 0,178 mm 2,7 UV-I 423 W/m 14,9 C 17,7 C 7,8 km/h (2 Bft)
30.08.2014 11:00 20,0 C 69 % 1017,9 hPa 0,0 l/m 9,5 km/h (2 Bft) W-SW 1,00 h 0,254 mm 4,0 UV-I 642 W/m 14,1 C 18,8 C 14,8 km/h (3 Bft)
30.08.2014 12:00 20,3 C 62 % 1017,8 hPa 0,0 l/m 11,0 km/h (2 Bft) W-SW 1,00 h 0,381 mm 4,5 UV-I 623 W/m 12,8 C 18,7 C 17,2 km/h (3 Bft)
30.08.2014 13:00 21,2 C 54 % 1017,6 hPa 0,0 l/m 11,5 km/h (2 Bft) W-SW 1,00 h 0,406 mm 4,8 UV-I 681 W/m 11,3 C 19,6 C 17,9 km/h (3 Bft)
30.08.2014 14:00 21,3 C 50 % 1017,5 hPa 0,0 l/m 11,5 km/h (2 Bft) W 1,00 h 0,483 mm 4,2 UV-I 650 W/m 10,4 C 19,7 C 17,4 km/h (3 Bft)
30.08.2014 15:00 21,6 C 51 % 1017,0 hPa 0,0 l/m 10,5 km/h (2 Bft) W 1,00 h 0,457 mm 3,2 UV-I 561 W/m 11,0 C 20,4 C 16,3 km/h (3 Bft)
30.08.2014 16:00 21,7 C 51 % 1016,7 hPa 0,0 l/m 9,7 km/h (2 Bft) W-NW 1,00 h 0,406 mm 2,3 UV-I 466 W/m 11,0 C 20,6 C 15,2 km/h (3 Bft)
30.08.2014 17:00 20,7 C 52 % 1016,6 hPa 0,0 l/m 8,6 km/h (2 Bft) W 1,00 h 0,356 mm 1,1 UV-I 250 W/m 10,5 C 19,9 C 13,4 km/h (3 Bft)
30.08.2014 18:00 19,8 C 57 % 1016,5 hPa 0,0 l/m 6,6 km/h (2 Bft) W-NW 0,38 h 0,203 mm 0,7 UV-I 88 W/m 11,1 C 19,4 C 10,2 km/h (2 Bft)
30.08.2014 19:00 18,5 C 63 % 1016,6 hPa 0,0 l/m 4,8 km/h (1 Bft) W-NW 0,00 h 0,102 mm 0,0 UV-I 14 W/m 11,1 C 18,3 C 7,6 km/h (2 Bft)
30.08.2014 20:00 15,8 C 76 % 1016,8 hPa 0,0 l/m 0,1 km/h (0 Bft) NW 0,00 h 0,025 mm 0,0 UV-I 0 W/m 11,4 C 15,8 C 0,3 km/h (0 Bft)
30.08.2014 21:00 13,9 C 85 % 1017,0 hPa 0,0 l/m 0,3 km/h (0 Bft) O 0,00 h 0,000 mm 0,0 UV-I 0 W/m 11,4 C 13,9 C 1,5 km/h (1 Bft)
30.08.2014 22:00 12,8 C 89 % 1016,9 hPa 0,0 l/m 0,3 km/h (0 Bft) O 0,00 h 0,000 mm 0,0 UV-I 0 W/m 11,0 C 12,8 C 1,0 km/h (0 Bft)
30.08.2014 23:00 12,4 C 90 % 1016,9 hPa 0,0 l/m 0,0 km/h (0 Bft) O 0,00 h 0,000 mm 0,0 UV-I 0 W/m 10,9 C 12,4 C 0,3 km/h (0 Bft)
31.08.2014 00:00 12,6 C 90 % 1016,5 hPa 0,0 l/m 0,0 km/h (0 Bft) N 0,00 h 0,000 mm 0,0 UV-I 0 W/m 11,0 C 12,6 C 0,1 km/h (0 Bft)
31.08.2014 01:00 12,8 C 91 % 1016,2 hPa 0,0 l/m 0,0 km/h (0 Bft) N 0,00 h 0,000 mm 0,0 UV-I 0 W/m 11,3 C 12,8 C 0,2 km/h (0 Bft)
31.08.2014 02:00 12,7 C 94 % 1015,8 hPa 0,4 l/m 0,2 km/h (0 Bft) SO 0,00 h 0,000 mm 0,0 UV-I 0 W/m 11,7 C 12,7 C 1,0 km/h (0 Bft)
31.08.2014 03:00 12,4 C 95 % 1015,3 hPa 0,0 l/m 0,0 km/h (0 Bft) N 0,00 h 0,000 mm 0,0 UV-I 0 W/m 11,7 C 12,4 C 0,1 km/h (0 Bft)
31.08.2014 04:00 12,5 C 96 % 1014,7 hPa 0,0 l/m 0,0 km/h (0 Bft) SO 0,00 h 0,000 mm 0,0 UV-I 0 W/m 11,8 C 12,5 C 0,2 km/h (0 Bft)
31.08.2014 05:00 12,7 C 96 % 1014,4 hPa 0,4 l/m 0,0 km/h (0 Bft) N 0,00 h 0,000 mm 0,0 UV-I 0 W/m 12,0 C 12,7 C 0,0 km/h (0 Bft)
31.08.2014 06:00 12,6 C 96 % 1014,1 hPa 0,0 l/m 0,1 km/h (0 Bft) SO 0,00 h 0,000 mm 0,0 UV-I 7 W/m 12,0 C 12,6 C 0,8 km/h (0 Bft)
31.08.2014 07:00 12,8 C 96 % 1013,9 hPa 0,8 l/m 2,7 km/h (1 Bft) S 0,00 h 0,000 mm 0,0 UV-I 15 W/m 12,2 C 12,7 C 5,1 km/h (1 Bft)
31.08.2014 08:00 13,1 C 96 % 1014,0 hPa 0,2 l/m 2,5 km/h (1 Bft) W 0,48 h 0,000 mm 0,5 UV-I 51 W/m 12,5 C 13,1 C 4,8 km/h (1 Bft)
31.08.2014 09:00 13,5 C 95 % 1013,9 hPa 0,4 l/m 2,7 km/h (1 Bft) S 0,98 h 0,025 mm 0,6 UV-I 91 W/m 12,8 C 13,5 C 5,0 km/h (1 Bft)
31.08.2014 10:00 13,9 C 94 % 1013,8 hPa 0,0 l/m 4,7 km/h (1 Bft) W-SW 1,00 h 0,051 mm 1,1 UV-I 158 W/m 13,0 C 13,8 C 8,1 km/h (2 Bft)
31.08.2014 11:00 14,3 C 91 % 1013,9 hPa 0,0 l/m 6,0 km/h (2 Bft) W-SW 1,00 h 0,076 mm 1,7 UV-I 227 W/m 12,8 C 13,9 C 9,1 km/h (2 Bft)
31.08.2014 12:00 14,8 C 89 % 1013,6 hPa 0,0 l/m 5,6 km/h (1 Bft) S 1,00 h 0,127 mm 2,0 UV-I 268 W/m 12,9 C 14,6 C 8,7 km/h (2 Bft)
31.08.2014 13:00 14,9 C 85 % 1013,1 hPa 0,0 l/m 5,1 km/h (1 Bft) W-SW 1,00 h 0,152 mm 1,7 UV-I 215 W/m 12,5 C 14,5 C 8,4 km/h (2 Bft)
31.08.2014 14:00 14,9 C 86 % 1012,7 hPa 0,2 l/m 6,2 km/h (2 Bft) SW 1,00 h 0,127 mm 1,5 UV-I 183 W/m 12,5 C 14,3 C 9,6 km/h (2 Bft)
31.08.2014 15:00 14,9 C 86 % 1012,3 hPa 0,0 l/m 4,2 km/h (1 Bft) W-SW 1,00 h 0,102 mm 1,0 UV-I 129 W/m 12,6 C 14,9 C 7,1 km/h (2 Bft)
31.08.2014 16:00 14,0 C 91 % 1012,1 hPa 0,8 l/m 4,1 km/h (1 Bft) SW 0,77 h 0,076 mm 0,5 UV-I 63 W/m 12,6 C 13,9 C 6,9 km/h (2 Bft)
31.08.2014 17:00 13,3 C 93 % 1012,1 hPa 0,0 l/m 5,4 km/h (1 Bft) S-SW 0,00 h 0,025 mm 0,0 UV-I 38 W/m 12,1 C 13,0 C 9,3 km/h (2 Bft)
31.08.2014 18:00 13,0 C 92 % 1012,3 hPa 0,0 l/m 5,3 km/h (1 Bft) W-SW 0,00 h 0,025 mm 0,0 UV-I 29 W/m 11,7 C 12,7 C 8,8 km/h (2 Bft)
31.08.2014 19:00 12,6 C 94 % 1012,5 hPa 0,0 l/m 4,0 km/h (1 Bft) SW 0,00 h 0,025 mm 0,0 UV-I 8 W/m 11,6 C 12,5 C 7,2 km/h (2 Bft)
31.08.2014 20:00 12,2 C 94 % 1013,1 hPa 0,4 l/m 4,2 km/h (1 Bft) W-SW 0,00 h 0,000 mm 0,0 UV-I 0 W/m 11,3 C 12,1 C 7,6 km/h (2 Bft)
31.08.2014 21:00 11,8 C 94 % 1013,5 hPa 0,2 l/m 2,7 km/h (1 Bft) SW 0,00 h 0,000 mm 0,0 UV-I 0 W/m 10,9 C 11,8 C 5,3 km/h (1 Bft)
31.08.2014 22:00 11,7 C 95 % 1013,7 hPa 0,0 l/m 1,2 km/h (1 Bft) W-NW 0,00 h 0,000 mm 0,0 UV-I 0 W/m 10,9 C 11,7 C 2,9 km/h (1 Bft)
31.08.2014 23:00 11,6 C 95 % 1013,7 hPa 0,0 l/m 0,7 km/h (0 Bft) W-NW 0,00 h 0,000 mm 0,0 UV-I 0 W/m 10,8 C 11,6 C 1,7 km/h (1 Bft)
Min-Datum _ 25.08.14 28.08.14 26.08.14 - 25.08.14 - - - - - 28.08.14 25.08.14 25.08.14
_ Min-Zeit 06:25 16:18 08:55 - 00:00 - - - - - 06:48 06:25 00:00
Minimum _ 3,8 C 43 % 1004,3 hPa - 0,0 km/h (0 Bft) - - - - - 3,0 C 3,8 C 0,0 km/h (0 Bft)
Max-Datum _ 30.08.14 27.08.14 28.08.14 27.08.14 27.08.14 - 25.08.14 27.08.14 25.08.14 27.08.14 29.08.14 30.08.14 25.08.14
_ Max-Zeit 14:59 00:37 09:29 03:05 14:39 - 09:12 15:00 12:52 12:27 17:18 15:46 15:19
Maximum _ 22,4 C 97 % 1020,0 hPa 3,6 l/m 19,3 km/h
N-NW (3 Bft)
- 0,07 h 0,483 mm 5,7 UV-I 946 W/m 16,0 C 22,3 C 25,7 km/h
S (4 Bft)
Durchschnitt _ 13,6 C 82 % 1014,7 hPa #20,4 l/m 3,4 km/h (1 Bft) S #71:48 h #15,360 mm 2,0 UV-I 245 W/m 10,3 C 13,4 C 5,6 km/h (1 Bft)